sensor_id;sensor_type;location;lat;lon;timestamp;P1;durP1;ratioP1;P2;durP2;ratioP2
62738;SDS011;48788;48.074;13.000;2023-12-20T00:00:59;7.40;;;4.88;;
62738;SDS011;48788;48.074;13.000;2023-12-20T00:03:31;6.40;;;4.55;;
62738;SDS011;48788;48.074;13.000;2023-12-20T00:06:03;7.75;;;5.25;;
62738;SDS011;48788;48.074;13.000;2023-12-20T00:08:34;6.53;;;5.15;;
62738;SDS011;48788;48.074;13.000;2023-12-20T00:11:06;9.38;;;5.30;;
62738;SDS011;48788;48.074;13.000;2023-12-20T00:13:42;7.45;;;4.60;;
62738;SDS011;48788;48.074;13.000;2023-12-20T00:16:14;6.25;;;4.78;;
62738;SDS011;48788;48.074;13.000;2023-12-20T00:18:45;5.57;;;4.63;;
62738;SDS011;48788;48.074;13.000;2023-12-20T00:21:17;6.65;;;4.80;;
62738;SDS011;48788;48.074;13.000;2023-12-20T00:23:49;9.48;;;6.18;;
62738;SDS011;48788;48.074;13.000;2023-12-20T00:26:20;9.27;;;4.95;;
62738;SDS011;48788;48.074;13.000;2023-12-20T00:28:58;7.28;;;4.80;;
62738;SDS011;48788;48.074;13.000;2023-12-20T00:31:30;7.38;;;4.78;;
62738;SDS011;48788;48.074;13.000;2023-12-20T00:34:01;8.07;;;5.60;;
62738;SDS011;48788;48.074;13.000;2023-12-20T00:36:33;8.20;;;5.38;;
62738;SDS011;48788;48.074;13.000;2023-12-20T00:39:04;7.10;;;5.07;;
62738;SDS011;48788;48.074;13.000;2023-12-20T00:41:35;6.18;;;4.88;;
62738;SDS011;48788;48.074;13.000;2023-12-20T00:44:12;5.78;;;4.93;;
62738;SDS011;48788;48.074;13.000;2023-12-20T00:46:44;5.90;;;4.63;;
62738;SDS011;48788;48.074;13.000;2023-12-20T00:49:15;6.55;;;4.65;;
62738;SDS011;48788;48.074;13.000;2023-12-20T00:51:46;6.82;;;5.07;;
62738;SDS011;48788;48.074;13.000;2023-12-20T00:54:18;7.25;;;4.50;;
62738;SDS011;48788;48.074;13.000;2023-12-20T00:56:49;6.18;;;4.38;;
62738;SDS011;48788;48.074;13.000;2023-12-20T00:59:26;4.65;;;4.15;;
62738;SDS011;48788;48.074;13.000;2023-12-20T01:01:58;8.27;;;5.07;;
62738;SDS011;48788;48.074;13.000;2023-12-20T01:04:29;6.68;;;4.63;;
62738;SDS011;48788;48.074;13.000;2023-12-20T01:07:01;5.18;;;3.97;;
62738;SDS011;48788;48.074;13.000;2023-12-20T01:09:32;4.20;;;3.83;;
62738;SDS011;48788;48.074;13.000;2023-12-20T01:12:04;5.43;;;4.82;;
62738;SDS011;48788;48.074;13.000;2023-12-20T01:14:41;4.30;;;3.85;;
62738;SDS011;48788;48.074;13.000;2023-12-20T01:17:12;4.55;;;3.95;;
62738;SDS011;48788;48.074;13.000;2023-12-20T01:19:44;5.75;;;4.10;;
62738;SDS011;48788;48.074;13.000;2023-12-20T01:22:15;3.75;;;3.25;;
62738;SDS011;48788;48.074;13.000;2023-12-20T01:24:47;4.90;;;3.60;;
62738;SDS011;48788;48.074;13.000;2023-12-20T01:27:18;3.70;;;3.05;;
62738;SDS011;48788;48.074;13.000;2023-12-20T01:29:55;6.18;;;4.05;;
62738;SDS011;48788;48.074;13.000;2023-12-20T01:32:26;4.63;;;3.90;;
62738;SDS011;48788;48.074;13.000;2023-12-20T01:34:57;6.57;;;3.65;;
62738;SDS011;48788;48.074;13.000;2023-12-20T01:37:29;6.05;;;3.72;;
62738;SDS011;48788;48.074;13.000;2023-12-20T01:40:00;5.50;;;3.97;;
62738;SDS011;48788;48.074;13.000;2023-12-20T01:42:33;4.33;;;3.93;;
62738;SDS011;48788;48.074;13.000;2023-12-20T01:45:10;4.25;;;3.15;;
62738;SDS011;48788;48.074;13.000;2023-12-20T01:47:41;5.72;;;3.15;;
62738;SDS011;48788;48.074;13.000;2023-12-20T01:50:13;4.10;;;3.13;;
62738;SDS011;48788;48.074;13.000;2023-12-20T01:52:44;3.78;;;3.30;;
62738;SDS011;48788;48.074;13.000;2023-12-20T01:55:17;4.43;;;3.97;;
62738;SDS011;48788;48.074;13.000;2023-12-20T01:57:49;7.22;;;4.15;;
62738;SDS011;48788;48.074;13.000;2023-12-20T02:00:27;5.05;;;4.05;;
62738;SDS011;48788;48.074;13.000;2023-12-20T02:03:00;4.30;;;3.90;;
62738;SDS011;48788;48.074;13.000;2023-12-20T02:05:34;4.72;;;3.60;;
62738;SDS011;48788;48.074;13.000;2023-12-20T02:08:06;3.55;;;3.25;;
62738;SDS011;48788;48.074;13.000;2023-12-20T02:10:38;3.53;;;3.22;;
62738;SDS011;48788;48.074;13.000;2023-12-20T02:13:11;3.83;;;3.30;;
62738;SDS011;48788;48.074;13.000;2023-12-20T02:15:47;6.88;;;3.92;;
62738;SDS011;48788;48.074;13.000;2023-12-20T02:18:19;4.13;;;3.70;;
62738;SDS011;48788;48.074;13.000;2023-12-20T02:20:50;7.43;;;4.32;;
62738;SDS011;48788;48.074;13.000;2023-12-20T02:23:27;7.93;;;4.22;;
62738;SDS011;48788;48.074;13.000;2023-12-20T02:25:58;6.03;;;4.13;;
62738;SDS011;48788;48.074;13.000;2023-12-20T02:28:30;8.20;;;4.22;;
62738;SDS011;48788;48.074;13.000;2023-12-20T02:31:02;5.15;;;3.95;;
62738;SDS011;48788;48.074;13.000;2023-12-20T02:33:34;5.03;;;3.83;;
62738;SDS011;48788;48.074;13.000;2023-12-20T02:36:07;5.15;;;3.80;;
62738;SDS011;48788;48.074;13.000;2023-12-20T02:38:44;5.45;;;3.67;;
62738;SDS011;48788;48.074;13.000;2023-12-20T02:41:15;6.32;;;4.30;;
62738;SDS011;48788;48.074;13.000;2023-12-20T02:43:47;6.13;;;3.83;;
62738;SDS011;48788;48.074;13.000;2023-12-20T02:46:18;4.22;;;3.80;;
62738;SDS011;48788;48.074;13.000;2023-12-20T02:48:50;4.35;;;3.90;;
62738;SDS011;48788;48.074;13.000;2023-12-20T02:51:21;6.45;;;4.15;;
62738;SDS011;48788;48.074;13.000;2023-12-20T02:53:58;4.32;;;3.85;;
62738;SDS011;48788;48.074;13.000;2023-12-20T02:56:29;5.03;;;4.53;;
62738;SDS011;48788;48.074;13.000;2023-12-20T02:59:01;11.05;;;4.43;;
62738;SDS011;48788;48.074;13.000;2023-12-20T03:01:33;6.45;;;4.13;;
62738;SDS011;48788;48.074;13.000;2023-12-20T03:04:05;6.47;;;3.92;;
62738;SDS011;48788;48.074;13.000;2023-12-20T03:06:37;4.18;;;3.85;;
62738;SDS011;48788;48.074;13.000;2023-12-20T03:09:14;5.30;;;4.10;;
62738;SDS011;48788;48.074;13.000;2023-12-20T03:11:45;4.25;;;3.85;;
62738;SDS011;48788;48.074;13.000;2023-12-20T03:14:16;4.93;;;4.43;;
62738;SDS011;48788;48.074;13.000;2023-12-20T03:16:49;5.15;;;4.10;;
62738;SDS011;48788;48.074;13.000;2023-12-20T03:19:21;6.28;;;3.42;;
62738;SDS011;48788;48.074;13.000;2023-12-20T03:21:52;6.10;;;3.53;;
62738;SDS011;48788;48.074;13.000;2023-12-20T03:24:31;3.90;;;3.33;;
62738;SDS011;48788;48.074;13.000;2023-12-20T03:27:03;5.47;;;3.65;;
62738;SDS011;48788;48.074;13.000;2023-12-20T03:29:34;3.83;;;3.45;;
62738;SDS011;48788;48.074;13.000;2023-12-20T03:32:06;4.00;;;3.40;;
62738;SDS011;48788;48.074;13.000;2023-12-20T03:34:37;4.05;;;3.20;;
62738;SDS011;48788;48.074;13.000;2023-12-20T03:37:09;4.07;;;3.10;;
62738;SDS011;48788;48.074;13.000;2023-12-20T03:39:45;3.50;;;3.10;;
62738;SDS011;48788;48.074;13.000;2023-12-20T03:42:17;3.28;;;2.97;;
62738;SDS011;48788;48.074;13.000;2023-12-20T03:44:48;3.78;;;3.47;;
62738;SDS011;48788;48.074;13.000;2023-12-20T03:47:20;3.40;;;3.10;;
62738;SDS011;48788;48.074;13.000;2023-12-20T03:49:51;3.25;;;2.95;;
62738;SDS011;48788;48.074;13.000;2023-12-20T03:52:22;3.58;;;3.08;;
62738;SDS011;48788;48.074;13.000;2023-12-20T03:54:59;3.50;;;3.17;;
62738;SDS011;48788;48.074;13.000;2023-12-20T03:57:30;4.45;;;3.47;;
62738;SDS011;48788;48.074;13.000;2023-12-20T04:00:02;3.78;;;3.25;;
62738;SDS011;48788;48.074;13.000;2023-12-20T04:02:35;4.72;;;3.25;;
62738;SDS011;48788;48.074;13.000;2023-12-20T04:05:07;3.80;;;3.10;;
62738;SDS011;48788;48.074;13.000;2023-12-20T04:07:39;4.97;;;3.33;;
62738;SDS011;48788;48.074;13.000;2023-12-20T04:10:16;2.97;;;2.78;;
62738;SDS011;48788;48.074;13.000;2023-12-20T04:12:47;4.10;;;2.97;;
62738;SDS011;48788;48.074;13.000;2023-12-20T04:15:20;3.37;;;3.07;;
62738;SDS011;48788;48.074;13.000;2023-12-20T04:17:51;4.80;;;2.85;;
62738;SDS011;48788;48.074;13.000;2023-12-20T04:20:23;3.92;;;3.25;;
62738;SDS011;48788;48.074;13.000;2023-12-20T04:22:54;3.53;;;2.90;;
62738;SDS011;48788;48.074;13.000;2023-12-20T04:25:31;4.18;;;3.50;;
62738;SDS011;48788;48.074;13.000;2023-12-20T04:28:02;4.85;;;3.50;;
62738;SDS011;48788;48.074;13.000;2023-12-20T04:30:34;4.43;;;2.88;;
62738;SDS011;48788;48.074;13.000;2023-12-20T04:33:05;5.82;;;3.00;;
62738;SDS011;48788;48.074;13.000;2023-12-20T04:35:37;8.10;;;3.10;;
62738;SDS011;48788;48.074;13.000;2023-12-20T04:38:11;4.25;;;3.60;;
62738;SDS011;48788;48.074;13.000;2023-12-20T04:40:47;3.42;;;3.13;;
62738;SDS011;48788;48.074;13.000;2023-12-20T04:43:19;4.95;;;3.03;;
62738;SDS011;48788;48.074;13.000;2023-12-20T04:45:50;3.30;;;2.90;;
62738;SDS011;48788;48.074;13.000;2023-12-20T04:48:22;3.40;;;3.10;;
62738;SDS011;48788;48.074;13.000;2023-12-20T04:50:53;4.05;;;3.33;;
62738;SDS011;48788;48.074;13.000;2023-12-20T04:53:24;3.88;;;3.45;;
62738;SDS011;48788;48.074;13.000;2023-12-20T04:56:01;4.35;;;3.10;;
62738;SDS011;48788;48.074;13.000;2023-12-20T04:58:33;3.85;;;3.45;;
62738;SDS011;48788;48.074;13.000;2023-12-20T05:01:04;3.42;;;3.13;;
62738;SDS011;48788;48.074;13.000;2023-12-20T05:03:37;6.50;;;4.82;;
62738;SDS011;48788;48.074;13.000;2023-12-20T05:06:09;4.15;;;3.58;;
62738;SDS011;48788;48.074;13.000;2023-12-20T05:08:40;7.55;;;3.25;;
62738;SDS011;48788;48.074;13.000;2023-12-20T05:11:17;4.53;;;3.65;;
62738;SDS011;48788;48.074;13.000;2023-12-20T05:13:48;4.53;;;3.35;;
62738;SDS011;48788;48.074;13.000;2023-12-20T05:16:20;4.60;;;3.55;;
62738;SDS011;48788;48.074;13.000;2023-12-20T05:18:51;5.03;;;3.60;;
62738;SDS011;48788;48.074;13.000;2023-12-20T05:21:23;3.92;;;3.58;;
62738;SDS011;48788;48.074;13.000;2023-12-20T05:23:56;4.38;;;3.35;;
62738;SDS011;48788;48.074;13.000;2023-12-20T05:26:32;6.07;;;3.60;;
62738;SDS011;48788;48.074;13.000;2023-12-20T05:29:04;3.70;;;3.10;;
62738;SDS011;48788;48.074;13.000;2023-12-20T05:31:35;8.93;;;3.88;;
62738;SDS011;48788;48.074;13.000;2023-12-20T05:34:07;3.65;;;3.25;;
62738;SDS011;48788;48.074;13.000;2023-12-20T05:36:38;4.85;;;2.72;;
62738;SDS011;48788;48.074;13.000;2023-12-20T05:39:09;3.45;;;3.15;;
62738;SDS011;48788;48.074;13.000;2023-12-20T05:41:46;5.47;;;3.08;;
62738;SDS011;48788;48.074;13.000;2023-12-20T05:44:17;5.40;;;3.58;;
62738;SDS011;48788;48.074;13.000;2023-12-20T05:46:49;3.40;;;3.10;;
62738;SDS011;48788;48.074;13.000;2023-12-20T05:49:20;5.50;;;3.42;;
62738;SDS011;48788;48.074;13.000;2023-12-20T05:51:52;4.30;;;3.50;;
62738;SDS011;48788;48.074;13.000;2023-12-20T05:54:23;4.68;;;3.65;;
62738;SDS011;48788;48.074;13.000;2023-12-20T05:57:00;3.53;;;3.22;;
62738;SDS011;48788;48.074;13.000;2023-12-20T05:59:31;3.60;;;3.28;;
62738;SDS011;48788;48.074;13.000;2023-12-20T06:02:03;3.42;;;3.13;;
62738;SDS011;48788;48.074;13.000;2023-12-20T06:04:35;4.93;;;3.17;;
62738;SDS011;48788;48.074;13.000;2023-12-20T06:07:06;3.67;;;2.83;;
62738;SDS011;48788;48.074;13.000;2023-12-20T06:09:38;3.80;;;2.92;;
62738;SDS011;48788;48.074;13.000;2023-12-20T06:12:15;3.42;;;3.03;;
62738;SDS011;48788;48.074;13.000;2023-12-20T06:14:46;4.38;;;3.28;;
62738;SDS011;48788;48.074;13.000;2023-12-20T06:17:18;3.58;;;3.28;;
62738;SDS011;48788;48.074;13.000;2023-12-20T06:19:49;5.47;;;3.40;;
62738;SDS011;48788;48.074;13.000;2023-12-20T06:22:21;4.88;;;3.10;;
62738;SDS011;48788;48.074;13.000;2023-12-20T06:24:52;7.57;;;5.10;;
62738;SDS011;48788;48.074;13.000;2023-12-20T06:27:29;4.90;;;3.80;;
62738;SDS011;48788;48.074;13.000;2023-12-20T06:30:00;5.50;;;4.47;;
62738;SDS011;48788;48.074;13.000;2023-12-20T06:32:32;4.78;;;4.07;;
62738;SDS011;48788;48.074;13.000;2023-12-20T06:35:05;4.83;;;4.37;;
62738;SDS011;48788;48.074;13.000;2023-12-20T06:37:37;6.90;;;3.97;;
62738;SDS011;48788;48.074;13.000;2023-12-20T06:40:09;6.15;;;3.88;;
62738;SDS011;48788;48.074;13.000;2023-12-20T06:42:46;4.00;;;3.63;;
62738;SDS011;48788;48.074;13.000;2023-12-20T06:45:18;5.53;;;4.30;;
62738;SDS011;48788;48.074;13.000;2023-12-20T06:47:49;6.60;;;3.75;;
62738;SDS011;48788;48.074;13.000;2023-12-20T06:50:20;3.85;;;3.45;;
62738;SDS011;48788;48.074;13.000;2023-12-20T06:52:52;4.32;;;3.60;;
62738;SDS011;48788;48.074;13.000;2023-12-20T06:55:24;3.97;;;3.50;;
62738;SDS011;48788;48.074;13.000;2023-12-20T06:58:01;4.10;;;3.45;;
62738;SDS011;48788;48.074;13.000;2023-12-20T07:00:34;4.43;;;3.70;;
62738;SDS011;48788;48.074;13.000;2023-12-20T07:03:05;5.07;;;4.30;;
62738;SDS011;48788;48.074;13.000;2023-12-20T07:05:37;6.78;;;5.18;;
62738;SDS011;48788;48.074;13.000;2023-12-20T07:08:08;4.93;;;3.75;;
62738;SDS011;48788;48.074;13.000;2023-12-20T07:10:41;7.20;;;4.90;;
62738;SDS011;48788;48.074;13.000;2023-12-20T07:13:18;5.90;;;4.20;;
62738;SDS011;48788;48.074;13.000;2023-12-20T07:15:50;6.57;;;4.45;;
62738;SDS011;48788;48.074;13.000;2023-12-20T07:18:21;5.03;;;4.25;;
62738;SDS011;48788;48.074;13.000;2023-12-20T07:20:53;12.00;;;5.35;;
62738;SDS011;48788;48.074;13.000;2023-12-20T07:23:24;6.15;;;5.38;;
62738;SDS011;48788;48.074;13.000;2023-12-20T07:25:56;5.65;;;4.65;;
62738;SDS011;48788;48.074;13.000;2023-12-20T07:28:32;7.50;;;4.88;;
62738;SDS011;48788;48.074;13.000;2023-12-20T07:31:04;5.70;;;4.97;;
62738;SDS011;48788;48.074;13.000;2023-12-20T07:33:35;6.50;;;4.65;;
62738;SDS011;48788;48.074;13.000;2023-12-20T07:36:07;7.15;;;3.75;;
62738;SDS011;48788;48.074;13.000;2023-12-20T07:38:38;4.78;;;4.20;;
62738;SDS011;48788;48.074;13.000;2023-12-20T07:41:10;6.07;;;4.05;;
62738;SDS011;48788;48.074;13.000;2023-12-20T07:43:47;5.45;;;4.28;;
62738;SDS011;48788;48.074;13.000;2023-12-20T07:46:19;5.28;;;4.25;;
62738;SDS011;48788;48.074;13.000;2023-12-20T07:48:53;5.88;;;4.43;;
62738;SDS011;48788;48.074;13.000;2023-12-20T07:51:24;4.78;;;4.10;;
62738;SDS011;48788;48.074;13.000;2023-12-20T07:53:56;6.55;;;4.50;;
62738;SDS011;48788;48.074;13.000;2023-12-20T07:56:28;4.15;;;3.85;;
62738;SDS011;48788;48.074;13.000;2023-12-20T07:59:05;4.78;;;4.32;;
62738;SDS011;48788;48.074;13.000;2023-12-20T08:01:37;5.55;;;5.05;;
62738;SDS011;48788;48.074;13.000;2023-12-20T08:04:08;6.93;;;4.47;;
62738;SDS011;48788;48.074;13.000;2023-12-20T08:06:39;6.13;;;3.75;;
62738;SDS011;48788;48.074;13.000;2023-12-20T08:09:11;3.17;;;2.97;;
62738;SDS011;48788;48.074;13.000;2023-12-20T08:11:44;4.40;;;3.70;;
62738;SDS011;48788;48.074;13.000;2023-12-20T08:16:52;2.67;;;2.47;;
62738;SDS011;48788;48.074;13.000;2023-12-20T08:19:24;3.17;;;2.88;;
62738;SDS011;48788;48.074;13.000;2023-12-20T08:21:55;2.85;;;2.65;;
62738;SDS011;48788;48.074;13.000;2023-12-20T08:24:27;6.63;;;3.10;;
62738;SDS011;48788;48.074;13.000;2023-12-20T08:26:58;2.20;;;2.03;;
62738;SDS011;48788;48.074;13.000;2023-12-20T08:29:35;2.40;;;2.20;;
62738;SDS011;48788;48.074;13.000;2023-12-20T08:32:07;2.25;;;2.15;;
62738;SDS011;48788;48.074;13.000;2023-12-20T08:34:38;2.90;;;2.70;;
62738;SDS011;48788;48.074;13.000;2023-12-20T08:37:10;2.72;;;2.53;;
62738;SDS011;48788;48.074;13.000;2023-12-20T08:39:41;3.00;;;2.80;;
62738;SDS011;48788;48.074;13.000;2023-12-20T08:42:12;4.28;;;2.63;;
62738;SDS011;48788;48.074;13.000;2023-12-20T08:44:50;3.88;;;3.13;;
62738;SDS011;48788;48.074;13.000;2023-12-20T08:47:21;3.40;;;3.10;;
62738;SDS011;48788;48.074;13.000;2023-12-20T08:49:53;2.95;;;2.75;;
62738;SDS011;48788;48.074;13.000;2023-12-20T08:52:25;2.17;;;2.03;;
62738;SDS011;48788;48.074;13.000;2023-12-20T08:54:57;2.78;;;1.85;;
62738;SDS011;48788;48.074;13.000;2023-12-20T08:57:28;2.88;;;2.67;;
62738;SDS011;48788;48.074;13.000;2023-12-20T09:00:05;3.50;;;3.20;;
62738;SDS011;48788;48.074;13.000;2023-12-20T09:02:38;3.33;;;3.10;;
62738;SDS011;48788;48.074;13.000;2023-12-20T09:05:09;2.53;;;2.33;;
62738;SDS011;48788;48.074;13.000;2023-12-20T09:07:40;2.38;;;2.22;;
62738;SDS011;48788;48.074;13.000;2023-12-20T09:10:12;1.40;;;1.40;;
62738;SDS011;48788;48.074;13.000;2023-12-20T09:12:47;1.92;;;1.77;;
62738;SDS011;48788;48.074;13.000;2023-12-20T09:15:26;1.80;;;1.70;;
62738;SDS011;48788;48.074;13.000;2023-12-20T09:17:59;3.83;;;1.50;;
62738;SDS011;48788;48.074;13.000;2023-12-20T09:20:30;1.27;;;1.27;;
62738;SDS011;48788;48.074;13.000;2023-12-20T09:23:02;1.50;;;1.40;;
62738;SDS011;48788;48.074;13.000;2023-12-20T09:25:33;2.55;;;1.70;;
62738;SDS011;48788;48.074;13.000;2023-12-20T09:28:05;2.50;;;2.30;;
62738;SDS011;48788;48.074;13.000;2023-12-20T09:30:42;4.72;;;2.15;;
62738;SDS011;48788;48.074;13.000;2023-12-20T09:33:13;1.80;;;1.70;;
62738;SDS011;48788;48.074;13.000;2023-12-20T09:35:45;1.65;;;1.55;;
62738;SDS011;48788;48.074;13.000;2023-12-20T09:38:16;0.30;;;0.30;;
62738;SDS011;48788;48.074;13.000;2023-12-20T09:40:48;1.67;;;1.40;;
62738;SDS011;48788;48.074;13.000;2023-12-20T09:43:20;1.80;;;1.70;;
62738;SDS011;48788;48.074;13.000;2023-12-20T09:46:00;1.92;;;1.83;;
62738;SDS011;48788;48.074;13.000;2023-12-20T09:48:36;1.40;;;1.40;;
62738;SDS011;48788;48.074;13.000;2023-12-20T09:51:07;1.80;;;1.70;;
62738;SDS011;48788;48.074;13.000;2023-12-20T09:53:39;1.27;;;1.17;;
62738;SDS011;48788;48.074;13.000;2023-12-20T09:56:12;2.58;;;1.10;;
62738;SDS011;48788;48.074;13.000;2023-12-20T09:58:44;1.42;;;1.42;;
62738;SDS011;48788;48.074;13.000;2023-12-20T10:01:21;2.55;;;1.40;;
62738;SDS011;48788;48.074;13.000;2023-12-20T10:03:54;1.30;;;1.30;;
62738;SDS011;48788;48.074;13.000;2023-12-20T10:06:25;1.92;;;1.52;;
62738;SDS011;48788;48.074;13.000;2023-12-20T10:08:57;1.00;;;1.00;;
62738;SDS011;48788;48.074;13.000;2023-12-20T10:11:29;2.28;;;1.88;;
62738;SDS011;48788;48.074;13.000;2023-12-20T10:14:00;1.17;;;1.17;;
62738;SDS011;48788;48.074;13.000;2023-12-20T10:16:37;2.20;;;1.77;;
62738;SDS011;48788;48.074;13.000;2023-12-20T10:19:09;1.88;;;1.77;;
62738;SDS011;48788;48.074;13.000;2023-12-20T10:21:41;1.70;;;1.60;;
62738;SDS011;48788;48.074;13.000;2023-12-20T10:24:16;2.75;;;1.95;;
62738;SDS011;48788;48.074;13.000;2023-12-20T10:26:48;1.98;;;1.88;;
62738;SDS011;48788;48.074;13.000;2023-12-20T10:29:33;1.98;;;1.88;;
62738;SDS011;48788;48.074;13.000;2023-12-20T10:32:28;4.60;;;2.40;;
62738;SDS011;48788;48.074;13.000;2023-12-20T10:35:10;2.33;;;2.22;;
62738;SDS011;48788;48.074;13.000;2023-12-20T10:37:42;2.08;;;1.80;;
62738;SDS011;48788;48.074;13.000;2023-12-20T10:40:13;2.45;;;2.10;;
62738;SDS011;48788;48.074;13.000;2023-12-20T10:42:45;1.75;;;1.73;;
62738;SDS011;48788;48.074;13.000;2023-12-20T10:45:16;2.20;;;2.10;;
62738;SDS011;48788;48.074;13.000;2023-12-20T10:47:48;3.75;;;2.50;;
62738;SDS011;48788;48.074;13.000;2023-12-20T10:50:26;3.92;;;3.63;;
62738;SDS011;48788;48.074;13.000;2023-12-20T10:52:58;2.63;;;2.53;;
62738;SDS011;48788;48.074;13.000;2023-12-20T10:55:29;3.78;;;3.47;;
62738;SDS011;48788;48.074;13.000;2023-12-20T10:58:01;4.35;;;3.25;;
62738;SDS011;48788;48.074;13.000;2023-12-20T11:00:38;2.83;;;2.63;;
62738;SDS011;48788;48.074;13.000;2023-12-20T11:03:11;3.15;;;2.95;;
62738;SDS011;48788;48.074;13.000;2023-12-20T11:05:50;3.20;;;3.00;;
62738;SDS011;48788;48.074;13.000;2023-12-20T11:08:39;3.53;;;3.22;;
62738;SDS011;48788;48.074;13.000;2023-12-20T11:11:30;2.92;;;2.72;;
62738;SDS011;48788;48.074;13.000;2023-12-20T11:14:06;2.95;;;2.65;;
62738;SDS011;48788;48.074;13.000;2023-12-20T11:16:40;3.70;;;3.40;;
62738;SDS011;48788;48.074;13.000;2023-12-20T11:19:12;2.90;;;2.72;;
62738;SDS011;48788;48.074;13.000;2023-12-20T11:21:44;3.15;;;2.95;;
62738;SDS011;48788;48.074;13.000;2023-12-20T11:24:17;2.97;;;2.78;;
62738;SDS011;48788;48.074;13.000;2023-12-20T11:27:00;2.90;;;2.70;;
62738;SDS011;48788;48.074;13.000;2023-12-20T11:29:32;5.57;;;3.17;;
62738;SDS011;48788;48.074;13.000;2023-12-20T11:35:22;3.22;;;2.92;;
62738;SDS011;48788;48.074;13.000;2023-12-20T11:38:03;3.25;;;3.05;;
62738;SDS011;48788;48.074;13.000;2023-12-20T11:40:35;3.03;;;2.83;;
62738;SDS011;48788;48.074;13.000;2023-12-20T11:43:07;2.70;;;2.50;;
62738;SDS011;48788;48.074;13.000;2023-12-20T11:45:38;3.05;;;2.85;;
62738;SDS011;48788;48.074;13.000;2023-12-20T11:48:21;3.75;;;2.85;;
62738;SDS011;48788;48.074;13.000;2023-12-20T11:50:53;2.67;;;2.47;;
62738;SDS011;48788;48.074;13.000;2023-12-20T11:53:29;2.83;;;2.65;;
62738;SDS011;48788;48.074;13.000;2023-12-20T11:56:02;3.05;;;2.88;;
62738;SDS011;48788;48.074;13.000;2023-12-20T11:58:34;3.17;;;2.97;;
62738;SDS011;48788;48.074;13.000;2023-12-20T12:01:06;4.68;;;2.75;;
62738;SDS011;48788;48.074;13.000;2023-12-20T12:03:38;2.78;;;2.67;;
62738;SDS011;48788;48.074;13.000;2023-12-20T12:06:09;2.83;;;2.63;;
62738;SDS011;48788;48.074;13.000;2023-12-20T12:08:46;3.15;;;2.95;;
62738;SDS011;48788;48.074;13.000;2023-12-20T12:11:17;3.67;;;3.00;;
62738;SDS011;48788;48.074;13.000;2023-12-20T12:13:50;3.13;;;2.90;;
62738;SDS011;48788;48.074;13.000;2023-12-20T12:16:21;3.55;;;2.70;;
62738;SDS011;48788;48.074;13.000;2023-12-20T12:18:56;3.35;;;3.15;;
62738;SDS011;48788;48.074;13.000;2023-12-20T12:21:27;4.22;;;3.30;;
62738;SDS011;48788;48.074;13.000;2023-12-20T12:24:11;3.53;;;3.33;;
62738;SDS011;48788;48.074;13.000;2023-12-20T12:26:49;5.10;;;3.72;;
62738;SDS011;48788;48.074;13.000;2023-12-20T12:29:21;5.18;;;3.75;;
62738;SDS011;48788;48.074;13.000;2023-12-20T12:31:52;3.97;;;3.67;;
62738;SDS011;48788;48.074;13.000;2023-12-20T12:34:23;6.57;;;5.85;;
62738;SDS011;48788;48.074;13.000;2023-12-20T12:36:55;4.38;;;3.97;;
62738;SDS011;48788;48.074;13.000;2023-12-20T12:39:33;4.05;;;3.53;;
62738;SDS011;48788;48.074;13.000;2023-12-20T12:42:05;4.15;;;3.75;;
62738;SDS011;48788;48.074;13.000;2023-12-20T12:44:36;3.83;;;3.53;;
62738;SDS011;48788;48.074;13.000;2023-12-20T12:47:08;5.22;;;3.72;;
62738;SDS011;48788;48.074;13.000;2023-12-20T12:49:40;3.83;;;3.53;;
62738;SDS011;48788;48.074;13.000;2023-12-20T12:52:11;4.47;;;4.07;;
62738;SDS011;48788;48.074;13.000;2023-12-20T12:54:48;4.25;;;3.10;;
62738;SDS011;48788;48.074;13.000;2023-12-20T12:57:20;9.40;;;5.00;;
62738;SDS011;48788;48.074;13.000;2023-12-20T12:59:51;4.53;;;3.95;;
62738;SDS011;48788;48.074;13.000;2023-12-20T13:02:23;3.42;;;3.13;;
62738;SDS011;48788;48.074;13.000;2023-12-20T13:04:55;4.47;;;3.55;;
62738;SDS011;48788;48.074;13.000;2023-12-20T13:07:28;5.00;;;4.10;;
62738;SDS011;48788;48.074;13.000;2023-12-20T13:10:05;3.72;;;3.22;;
62738;SDS011;48788;48.074;13.000;2023-12-20T13:12:36;4.20;;;3.90;;
62738;SDS011;48788;48.074;13.000;2023-12-20T13:15:08;4.60;;;3.67;;
62738;SDS011;48788;48.074;13.000;2023-12-20T13:17:40;3.65;;;3.35;;
62738;SDS011;48788;48.074;13.000;2023-12-20T13:20:11;3.33;;;3.13;;
62738;SDS011;48788;48.074;13.000;2023-12-20T13:22:43;5.65;;;3.65;;
62738;SDS011;48788;48.074;13.000;2023-12-20T13:25:19;3.45;;;3.17;;
62738;SDS011;48788;48.074;13.000;2023-12-20T13:27:51;8.55;;;6.43;;
62738;SDS011;48788;48.074;13.000;2023-12-20T13:32:55;7.30;;;4.30;;
62738;SDS011;48788;48.074;13.000;2023-12-20T13:35:27;2.75;;;2.55;;
62738;SDS011;48788;48.074;13.000;2023-12-20T13:37:58;8.65;;;4.55;;
62738;SDS011;48788;48.074;13.000;2023-12-20T13:40:35;3.17;;;2.97;;
62738;SDS011;48788;48.074;13.000;2023-12-20T13:43:07;3.83;;;3.53;;
62738;SDS011;48788;48.074;13.000;2023-12-20T13:45:39;3.42;;;3.15;;
62738;SDS011;48788;48.074;13.000;2023-12-20T13:48:11;3.90;;;3.60;;
62738;SDS011;48788;48.074;13.000;2023-12-20T13:50:42;3.67;;;3.47;;
62738;SDS011;48788;48.074;13.000;2023-12-20T13:53:13;4.40;;;4.00;;
62738;SDS011;48788;48.074;13.000;2023-12-20T13:55:50;4.55;;;4.22;;
62738;SDS011;48788;48.074;13.000;2023-12-20T13:58:23;3.38;;;3.17;;
62738;SDS011;48788;48.074;13.000;2023-12-20T14:00:54;5.32;;;4.32;;
62738;SDS011;48788;48.074;13.000;2023-12-20T14:03:25;15.60;;;9.10;;
62738;SDS011;48788;48.074;13.000;2023-12-20T14:05:57;19.85;;;10.20;;
62738;SDS011;48788;48.074;13.000;2023-12-20T14:08:28;5.35;;;4.88;;
62738;SDS011;48788;48.074;13.000;2023-12-20T14:11:06;3.40;;;3.13;;
62738;SDS011;48788;48.074;13.000;2023-12-20T14:13:40;3.95;;;3.65;;
62738;SDS011;48788;48.074;13.000;2023-12-20T14:16:12;3.15;;;2.95;;
62738;SDS011;48788;48.074;13.000;2023-12-20T14:18:43;5.57;;;5.07;;
62738;SDS011;48788;48.074;13.000;2023-12-20T14:23:49;3.83;;;3.53;;
62738;SDS011;48788;48.074;13.000;2023-12-20T14:26:25;5.50;;;4.95;;
62738;SDS011;48788;48.074;13.000;2023-12-20T14:28:57;5.97;;;4.00;;
62738;SDS011;48788;48.074;13.000;2023-12-20T14:31:29;14.57;;;9.70;;
62738;SDS011;48788;48.074;13.000;2023-12-20T14:34:02;18.15;;;10.25;;
62738;SDS011;48788;48.074;13.000;2023-12-20T14:36:34;3.58;;;3.38;;
62738;SDS011;48788;48.074;13.000;2023-12-20T14:39:06;14.60;;;7.95;;
62738;SDS011;48788;48.074;13.000;2023-12-20T14:41:44;11.82;;;6.72;;
62738;SDS011;48788;48.074;13.000;2023-12-20T14:44:15;12.63;;;5.53;;
62738;SDS011;48788;48.074;13.000;2023-12-20T14:46:47;32.05;;;19.00;;
62738;SDS011;48788;48.074;13.000;2023-12-20T14:49:19;14.32;;;10.32;;
62738;SDS011;48788;48.074;13.000;2023-12-20T14:51:45;8.48;;;5.72;;
62738;SDS011;48788;48.074;13.000;2023-12-20T14:54:16;4.50;;;4.20;;
62738;SDS011;48788;48.074;13.000;2023-12-20T14:56:53;7.88;;;6.05;;
62738;SDS011;48788;48.074;13.000;2023-12-20T14:59:24;6.55;;;5.47;;
62738;SDS011;48788;48.074;13.000;2023-12-20T15:01:56;6.10;;;4.97;;
62738;SDS011;48788;48.074;13.000;2023-12-20T15:04:29;24.20;;;10.73;;
62738;SDS011;48788;48.074;13.000;2023-12-20T15:07:01;20.13;;;11.88;;
62738;SDS011;48788;48.074;13.000;2023-12-20T15:09:32;11.02;;;6.97;;
62738;SDS011;48788;48.074;13.000;2023-12-20T15:12:09;9.23;;;6.45;;
62738;SDS011;48788;48.074;13.000;2023-12-20T15:14:41;12.85;;;7.32;;
62738;SDS011;48788;48.074;13.000;2023-12-20T15:36:36;19.60;;;9.77;;